createdAt,value
2019-02-08T00:00:00.461Z,45.77
2019-02-08T00:02:31.693Z,46.07
2019-02-08T00:05:01.796Z,47.27
2019-02-08T00:07:32.163Z,46.47
2019-02-08T00:10:02.572Z,45.90
2019-02-08T00:12:32.688Z,45.83
2019-02-08T00:15:02.796Z,44.57
2019-02-08T00:17:33.829Z,45.90
2019-02-08T00:20:05.661Z,46.37
2019-02-08T00:22:35.865Z,44.60
2019-02-08T00:25:08.466Z,43.80
2019-02-08T00:27:39.054Z,46.67
2019-02-08T00:30:13.102Z,44.77
2019-02-08T00:32:44.938Z,44.87
2019-02-08T00:35:15.141Z,45.93
2019-02-08T00:37:45.607Z,45.17
2019-02-08T00:40:16.206Z,48.30
2019-02-08T00:42:46.921Z,46.97
2019-02-08T00:45:17.425Z,45.10
2019-02-08T00:47:47.475Z,45.63
2019-02-08T00:50:19.940Z,43.87
2019-02-08T00:52:50.887Z,46.10
2019-02-08T00:55:20.953Z,43.77
2019-02-08T00:57:51.052Z,44.10
2019-02-08T01:00:22.349Z,44.13
2019-02-08T01:02:52.704Z,45.53
2019-02-08T01:05:22.951Z,43.50
2019-02-08T01:07:54.583Z,42.67
2019-02-08T01:10:26.045Z,41.83
2019-02-08T01:12:55.868Z,40.90
2019-02-08T01:15:27.006Z,40.73
2019-02-08T01:17:56.967Z,40.33
2019-02-08T01:20:27.903Z,41.10
2019-02-08T01:22:58.008Z,41.63
2019-02-08T01:25:28.556Z,41.70
2019-02-08T01:28:09.691Z,44.40
2019-02-08T01:30:39.366Z,42.67
2019-02-08T01:33:09.716Z,42.07
2019-02-08T01:35:40.252Z,44.27
2019-02-08T01:38:10.776Z,41.57
2019-02-08T01:40:41.246Z,41.00
2019-02-08T01:43:11.546Z,39.07
2019-02-08T01:45:41.479Z,38.00
2019-02-08T01:48:12.019Z,35.83
2019-02-08T01:50:42.213Z,36.47
2019-02-08T01:53:12.807Z,42.73
2019-02-08T01:55:42.771Z,40.60
2019-02-08T01:58:12.538Z,32.30
2019-02-08T02:00:43.411Z,30.20
2019-02-08T02:03:13.390Z,28.20
2019-02-08T02:05:43.897Z,26.50
2019-02-08T02:08:14.345Z,26.97
2019-02-08T02:10:45.239Z,25.40
2019-02-08T02:13:15.626Z,26.27
2019-02-08T02:15:45.789Z,25.93
2019-02-08T02:18:16.034Z,25.33
2019-02-08T02:20:46.215Z,25.10
2019-02-08T02:23:16.744Z,24.87
2019-02-08T02:25:46.798Z,23.90
2019-02-08T02:28:16.313Z,26.23
2019-02-08T02:30:46.366Z,24.60
2019-02-08T02:33:17.089Z,25.53
2019-02-08T02:35:47.303Z,24.77
2019-02-08T02:38:16.987Z,24.90
2019-02-08T02:40:46.964Z,30.10
2019-02-08T02:43:16.693Z,27.17
2019-02-08T02:45:47.182Z,25.47
2019-02-08T02:48:17.704Z,25.00
2019-02-08T02:50:47.961Z,25.60
2019-02-08T02:53:18.458Z,25.73
2019-02-08T02:55:49.222Z,26.47
2019-02-08T02:58:18.764Z,25.87
2019-02-08T03:00:49.205Z,26.77
2019-02-08T03:03:18.643Z,26.37
2019-02-08T03:05:49.522Z,25.87
2019-02-08T03:08:19.287Z,26.53
2019-02-08T03:10:48.884Z,26.87
2019-02-08T03:13:20.048Z,27.47
2019-02-08T03:15:49.898Z,26.67
2019-02-08T03:18:19.929Z,26.00
2019-02-08T03:20:49.736Z,26.43
2019-02-08T03:23:20.189Z,25.87
2019-02-08T03:25:50.394Z,26.57
2019-02-08T03:28:20.310Z,25.70
2019-02-08T03:30:52.850Z,27.13
2019-02-08T03:33:23.176Z,26.23
2019-02-08T03:35:52.860Z,26.80
2019-02-08T03:38:22.708Z,26.30
2019-02-08T03:40:52.193Z,26.37
2019-02-08T03:43:22.260Z,27.70
2019-02-08T03:45:53.249Z,28.70
2019-02-08T03:48:23.640Z,27.47
2019-02-08T03:50:54.435Z,40.77
2019-02-08T03:53:24.590Z,27.67
2019-02-08T03:55:58.428Z,27.37
2019-02-08T03:58:26.943Z,30.60
2019-02-08T04:01:07.673Z,29.03
2019-02-08T04:03:37.572Z,28.00
2019-02-08T04:06:07.493Z,27.23
2019-02-08T04:08:37.253Z,29.27
2019-02-08T04:11:07.334Z,27.67
2019-02-08T04:13:37.366Z,27.80
2019-02-08T04:16:07.735Z,30.20
2019-02-08T04:18:37.945Z,29.30
2019-02-08T04:21:08.756Z,29.47
2019-02-08T04:23:38.246Z,30.80
2019-02-08T04:26:08.091Z,34.13
2019-02-08T04:28:38.359Z,32.87
2019-02-08T04:31:08.553Z,31.27
2019-02-08T04:33:38.639Z,28.50
2019-02-08T04:36:08.819Z,26.27
2019-02-08T04:38:39.807Z,28.33
2019-02-08T04:41:09.958Z,24.47
2019-02-08T04:43:40.344Z,23.17
2019-02-08T04:46:11.081Z,23.67
2019-02-08T04:48:43.784Z,22.70
2019-02-08T04:51:14.137Z,22.95
2019-02-08T04:53:44.755Z,21.80
2019-02-08T04:56:15.508Z,19.30
2019-02-08T04:58:45.913Z,20.23
2019-02-08T05:01:16.282Z,17.07
2019-02-08T05:03:46.364Z,17.35
2019-02-08T05:06:16.176Z,16.37
2019-02-08T05:08:46.594Z,17.90
2019-02-08T05:11:17.596Z,17.93
2019-02-08T05:13:47.804Z,18.80
2019-02-08T05:16:18.188Z,17.60
2019-02-08T05:18:47.752Z,18.20
2019-02-08T05:21:17.721Z,18.43
2019-02-08T05:23:47.814Z,18.77
2019-02-08T05:26:18.201Z,19.03
2019-02-08T05:28:48.699Z,18.83
2019-02-08T05:31:18.814Z,17.57
2019-02-08T05:33:48.832Z,17.70
2019-02-08T05:36:18.785Z,17.70
2019-02-08T05:38:48.868Z,17.57
2019-02-08T05:41:19.057Z,18.57
2019-02-08T05:43:49.212Z,22.03
2019-02-08T05:46:19.823Z,22.80
2019-02-08T05:48:50.144Z,24.80
2019-02-08T05:51:20.704Z,25.57
2019-02-08T05:53:51.073Z,25.43
2019-02-08T05:56:21.053Z,25.90
2019-02-08T05:58:51.223Z,28.63
2019-02-08T06:01:21.077Z,28.80
2019-02-08T06:03:51.392Z,29.73
2019-02-08T06:06:21.373Z,30.40
2019-02-08T06:08:51.130Z,29.20
2019-02-08T06:11:21.050Z,29.50
2019-02-08T06:13:51.363Z,28.83
2019-02-08T06:16:21.566Z,29.63
2019-02-08T06:18:52.479Z,29.53
2019-02-08T06:21:22.771Z,30.77
2019-02-08T06:23:52.858Z,28.80
2019-02-08T06:26:24.440Z,28.87
2019-02-08T06:28:55.514Z,29.30
2019-02-08T06:31:25.378Z,31.73
2019-02-08T06:33:56.249Z,30.77
2019-02-08T06:36:27.011Z,32.93
2019-02-08T06:38:56.987Z,35.97
2019-02-08T06:41:29.035Z,48.90
2019-02-08T06:43:59.118Z,46.23
2019-02-08T06:46:29.356Z,47.37
2019-02-08T06:49:00.098Z,44.23
2019-02-08T06:51:30.546Z,45.00
2019-02-08T06:54:01.148Z,42.60
2019-02-08T06:56:49.234Z,50.80
2019-02-08T06:59:29.281Z,39.47
2019-02-08T07:02:21.015Z,37.93
2019-02-08T07:05:16.935Z,36.10
2019-02-08T07:07:57.397Z,35.87
2019-02-08T07:10:45.958Z,36.07
2019-02-08T07:13:38.608Z,36.03
2019-02-08T07:16:21.742Z,34.60
2019-02-08T07:18:59.164Z,35.13
2019-02-08T07:21:55.654Z,37.53
2019-02-08T07:24:37.438Z,36.53
2019-02-08T07:27:27.387Z,34.97
2019-02-08T07:30:09.630Z,34.63
2019-02-08T07:33:12.412Z,33.93
2019-02-08T07:36:04.851Z,32.83
2019-02-08T07:41:49.069Z,33.80
2019-02-08T07:44:40.643Z,34.77
2019-02-08T07:47:32.786Z,34.60
2019-02-08T07:50:23.282Z,34.23
2019-02-08T07:53:24.003Z,35.77
2019-02-08T07:56:28.630Z,36.47
2019-02-08T07:59:32.545Z,35.27
2019-02-08T08:02:08.090Z,34.10
2019-02-08T08:04:57.561Z,35.65
2019-02-08T08:07:55.433Z,32.23
2019-02-08T08:10:44.705Z,32.35
2019-02-08T08:13:41.236Z,32.10
2019-02-08T08:16:32.269Z,30.67
2019-02-08T08:19:16.029Z,28.50
2019-02-08T08:22:06.194Z,29.60
2019-02-08T08:24:54.416Z,33.40
2019-02-08T08:27:31.295Z,31.10
2019-02-08T08:30:33.052Z,28.30
2019-02-08T08:33:38.606Z,30.55
2019-02-08T08:36:41.612Z,27.00
2019-02-08T08:39:37.016Z,26.60
2019-02-08T08:42:51.774Z,25.10
2019-02-08T08:46:03.361Z,25.30
2019-02-08T08:48:59.425Z,27.52
2019-02-08T08:52:09.653Z,27.95
2019-02-08T08:55:32.644Z,27.37
2019-02-08T08:58:29.960Z,26.47
2019-02-08T09:01:51.586Z,28.00
2019-02-08T09:04:51.269Z,25.33
2019-02-08T09:08:07.242Z,22.67
2019-02-08T09:11:04.649Z,24.93
2019-02-08T09:14:14.299Z,25.63
2019-02-08T09:17:26.102Z,26.27
2019-02-08T09:20:39.142Z,26.93
2019-02-08T09:23:55.025Z,26.40
2019-02-08T09:27:00.674Z,25.00
2019-02-08T09:29:52.802Z,29.17
2019-02-08T09:33:02.247Z,25.97
2019-02-08T09:36:07.869Z,23.73
2019-02-08T09:39:08.971Z,26.53
2019-02-08T09:42:20.368Z,23.27
2019-02-08T09:45:19.633Z,22.33
2019-02-08T09:48:26.503Z,20.90
2019-02-08T09:51:33.090Z,22.40
2019-02-08T09:54:58.015Z,21.27
2019-02-08T09:57:59.145Z,20.23
2019-02-08T10:00:53.709Z,19.33
2019-02-08T10:03:55.979Z,20.83
2019-02-08T10:07:20.801Z,19.80
2019-02-08T10:10:48.003Z,20.40
2019-02-08T10:14:00.357Z,20.77
2019-02-08T10:17:20.041Z,20.57
2019-02-08T10:20:39.325Z,19.07
2019-02-08T10:24:06.383Z,18.33
2019-02-08T10:27:32.805Z,19.47
2019-02-08T10:30:50.535Z,20.12
2019-02-08T10:34:08.065Z,17.83
2019-02-08T10:37:28.061Z,16.03
2019-02-08T10:40:47.727Z,17.03
2019-02-08T10:44:07.105Z,15.77
2019-02-08T10:47:29.762Z,13.48
2019-02-08T10:50:42.677Z,13.57
2019-02-08T10:53:54.518Z,13.33
2019-02-08T10:57:09.141Z,12.37
2019-02-08T11:00:33.017Z,11.60
2019-02-08T11:03:59.820Z,9.95
2019-02-08T11:07:05.933Z,10.03
2019-02-08T11:10:27.867Z,8.47
2019-02-08T11:13:40.690Z,10.40
2019-02-08T11:17:01.796Z,10.23
2019-02-08T11:19:30.842Z,9.77
2019-02-08T11:22:00.702Z,8.90
2019-02-08T11:24:32.136Z,10.37
2019-02-08T11:27:02.550Z,8.90
2019-02-08T11:29:32.705Z,7.57
2019-02-08T11:32:03.720Z,7.43
2019-02-08T11:34:33.592Z,7.40
2019-02-08T11:37:04.659Z,7.27
2019-02-08T11:39:34.381Z,7.90
2019-02-08T11:42:07.186Z,6.87
2019-02-08T11:44:37.182Z,6.53
2019-02-08T11:47:07.813Z,7.43
2019-02-08T11:49:37.929Z,6.07
2019-02-08T11:52:08.193Z,5.83
2019-02-08T11:54:38.931Z,6.50
2019-02-08T11:57:08.867Z,6.17
2019-02-08T11:59:38.807Z,7.33
2019-02-08T12:02:09.746Z,10.67
2019-02-08T12:04:40.228Z,7.17
2019-02-08T12:07:10.600Z,7.40
2019-02-08T12:09:40.154Z,8.03
2019-02-08T12:12:09.774Z,5.77
2019-02-08T12:14:39.992Z,9.43
2019-02-08T12:17:10.587Z,8.33
2019-02-08T12:19:40.022Z,7.50
2019-02-08T12:22:10.259Z,7.23
2019-02-08T12:24:40.921Z,7.20
2019-02-08T12:27:10.721Z,7.50
2019-02-08T12:29:40.715Z,7.67
2019-02-08T12:32:10.750Z,7.07
2019-02-08T12:34:40.488Z,8.40
2019-02-08T12:37:11.093Z,7.43
2019-02-08T12:39:40.921Z,8.23
2019-02-08T12:42:31.978Z,7.00
2019-02-08T12:45:01.760Z,8.13
2019-02-08T12:47:31.595Z,9.07
2019-02-08T12:50:02.012Z,6.83
2019-02-08T12:52:32.081Z,6.53
2019-02-08T12:55:02.082Z,6.87
2019-02-08T12:57:32.403Z,7.77
2019-02-08T13:00:02.789Z,6.53
2019-02-08T13:02:32.932Z,6.50
2019-02-08T13:05:05.905Z,5.97
2019-02-08T13:07:35.980Z,6.20
2019-02-08T13:10:09.519Z,6.77
2019-02-08T13:12:39.951Z,6.70
2019-02-08T13:16:13.055Z,7.50
2019-02-08T13:18:43.671Z,7.10
2019-02-08T13:21:17.490Z,6.53
2019-02-08T13:23:47.346Z,6.50
2019-02-08T13:26:17.883Z,6.20
2019-02-08T13:28:48.194Z,6.40
2019-02-08T13:31:18.810Z,7.23
2019-02-08T13:33:49.064Z,6.10
2019-02-08T13:36:19.201Z,6.10
2019-02-08T13:38:49.539Z,5.93
2019-02-08T13:41:20.717Z,6.90
2019-02-08T13:43:50.625Z,6.40
2019-02-08T13:46:21.272Z,6.47
2019-02-08T13:48:52.064Z,6.47
2019-02-08T13:51:23.675Z,5.43
2019-02-08T13:53:55.673Z,5.20
2019-02-08T13:56:26.708Z,5.10
2019-02-08T13:58:58.569Z,5.67
2019-02-08T14:01:29.661Z,5.70
2019-02-08T14:04:02.093Z,5.63
2019-02-08T14:06:35.370Z,5.73
2019-02-08T14:09:08.954Z,5.40
2019-02-08T14:11:40.073Z,5.45
2019-02-08T14:14:10.305Z,4.83
2019-02-08T14:16:41.695Z,5.62
2019-02-08T14:19:13.291Z,5.37
2019-02-08T14:21:47.463Z,6.53
2019-02-08T14:24:18.644Z,5.93
2019-02-08T14:26:49.996Z,6.03
2019-02-08T14:29:20.462Z,6.27
2019-02-08T14:31:50.916Z,7.00
2019-02-08T14:34:21.079Z,6.07
2019-02-08T14:36:53.277Z,6.10
2019-02-08T14:39:26.508Z,7.87
2019-02-08T14:41:56.970Z,6.70
2019-02-08T14:44:28.662Z,7.20
2019-02-08T14:47:05.151Z,7.47
2019-02-08T14:49:35.746Z,6.33
2019-02-08T14:52:05.312Z,6.13
2019-02-08T14:54:36.401Z,6.40
2019-02-08T14:57:16.263Z,7.27
2019-02-08T14:59:43.654Z,6.70
2019-02-08T15:02:13.745Z,7.00
2019-02-08T15:04:43.805Z,7.20
2019-02-08T15:07:14.804Z,6.20
2019-02-08T15:09:44.855Z,6.87
2019-02-08T15:12:15.703Z,6.50
2019-02-08T15:14:45.508Z,7.40
2019-02-08T15:17:15.264Z,7.00
2019-02-08T15:19:45.947Z,6.43
2019-02-08T15:22:16.336Z,5.37
2019-02-08T15:24:46.466Z,5.20
2019-02-08T15:27:24.028Z,5.50
2019-02-08T15:29:50.154Z,5.60
2019-02-08T15:32:20.467Z,5.60
2019-02-08T15:34:50.887Z,5.57
2019-02-08T15:37:21.043Z,5.93
2019-02-08T15:39:52.564Z,5.63
2019-02-08T15:42:22.854Z,5.90
2019-02-08T15:44:54.308Z,6.00
2019-02-08T15:47:24.158Z,6.30
2019-02-08T15:49:55.124Z,5.87
2019-02-08T15:52:25.302Z,6.33
2019-02-08T15:54:56.694Z,6.00
2019-02-08T15:57:31.996Z,5.83
2019-02-08T15:59:58.269Z,6.30
2019-02-08T16:02:31.034Z,5.83
2019-02-08T16:05:01.183Z,6.10
2019-02-08T16:07:31.082Z,6.10
2019-02-08T16:10:00.993Z,6.60
2019-02-08T16:12:31.633Z,6.20
2019-02-08T16:15:02.070Z,6.63
2019-02-08T16:17:32.085Z,7.20
2019-02-08T16:20:02.313Z,7.47
2019-02-08T16:22:32.420Z,7.40
2019-02-08T16:25:03.051Z,7.80
2019-02-08T16:27:39.403Z,7.03
2019-02-08T16:30:08.205Z,7.43
2019-02-08T16:32:38.589Z,6.87
2019-02-08T16:35:10.232Z,7.37
2019-02-08T16:37:40.434Z,7.20
2019-02-08T16:40:13.346Z,7.30
2019-02-08T16:42:43.722Z,7.80
2019-02-08T16:45:18.097Z,7.97
2019-02-08T16:47:48.147Z,8.13
2019-02-08T16:50:20.045Z,8.77
2019-02-08T16:52:50.281Z,10.10
2019-02-08T16:55:21.154Z,21.67
2019-02-08T16:57:52.092Z,18.87
2019-02-08T17:00:26.843Z,16.80
2019-02-08T17:02:58.239Z,18.50
2019-02-08T17:05:29.940Z,17.40
2019-02-08T17:08:00.500Z,15.73
2019-02-08T17:10:31.314Z,15.60
2019-02-08T17:13:01.626Z,17.53
2019-02-08T17:15:32.054Z,25.50
2019-02-08T17:18:02.444Z,25.07
2019-02-08T17:20:34.910Z,24.17
2019-02-08T17:23:07.036Z,22.73
2019-02-08T17:25:38.101Z,21.10
2019-02-08T17:28:12.037Z,19.77
2019-02-08T17:30:43.560Z,19.70
2019-02-08T17:33:13.922Z,19.23
2019-02-08T17:35:44.874Z,20.83
2019-02-08T17:38:16.485Z,40.90
2019-02-08T17:40:48.204Z,24.30
2019-02-08T17:43:19.068Z,22.90
2019-02-08T17:45:50.167Z,27.07
2019-02-08T17:48:21.058Z,24.13
2019-02-08T17:50:52.948Z,26.47
2019-02-08T17:53:24.196Z,24.80
2019-02-08T17:55:56.216Z,26.20
2019-02-08T17:58:27.006Z,27.57
2019-02-08T18:00:59.934Z,29.50
2019-02-08T18:03:31.051Z,28.83
2019-02-08T18:06:05.542Z,66.60
2019-02-08T18:08:36.693Z,82.43
2019-02-08T18:11:07.992Z,71.17
2019-02-08T18:13:39.270Z,53.60
2019-02-08T18:16:10.297Z,49.63
2019-02-08T18:18:40.930Z,42.70
2019-02-08T18:21:13.111Z,37.10
2019-02-08T18:23:43.921Z,36.37
2019-02-08T18:26:15.564Z,34.33
2019-02-08T18:29:05.911Z,32.33
2019-02-08T18:31:37.063Z,29.20
2019-02-08T18:34:08.054Z,25.30
2019-02-08T18:36:39.090Z,23.23
2019-02-08T18:39:10.500Z,24.20
2019-02-08T18:41:42.592Z,23.83
2019-02-08T18:44:13.718Z,28.37
2019-02-08T18:46:44.454Z,26.77
2019-02-08T18:49:14.933Z,33.73
2019-02-08T18:51:46.551Z,30.53
2019-02-08T18:54:18.822Z,24.47
2019-02-08T18:56:49.598Z,25.33
2019-02-08T18:59:20.192Z,26.73
2019-02-08T19:01:53.886Z,35.03
2019-02-08T19:04:25.472Z,32.37
2019-02-08T19:06:58.760Z,32.83
2019-02-08T19:09:31.630Z,30.73
2019-02-08T19:12:04.834Z,38.23
2019-02-08T19:14:35.746Z,42.43
2019-02-08T19:17:06.722Z,30.43
2019-02-08T19:19:37.473Z,34.03
2019-02-08T19:22:10.597Z,52.33
2019-02-08T19:24:42.996Z,36.03
2019-02-08T19:27:14.370Z,30.37
2019-02-08T19:29:45.678Z,20.60
2019-02-08T19:32:37.714Z,18.37
2019-02-08T19:35:10.036Z,17.97
2019-02-08T19:37:41.431Z,21.40
2019-02-08T19:40:14.745Z,24.17
2019-02-08T19:42:45.664Z,26.60
2019-02-08T19:45:16.789Z,25.53
2019-02-08T19:47:47.978Z,22.50
2019-02-08T19:50:29.366Z,16.73
2019-02-08T19:53:01.421Z,18.37
2019-02-08T19:55:32.387Z,14.87
2019-02-08T19:58:05.964Z,13.83
2019-02-08T20:00:38.454Z,12.27
2019-02-08T20:03:10.719Z,13.53
2019-02-08T20:05:41.772Z,12.77
2019-02-08T20:08:14.192Z,12.70
2019-02-08T20:10:46.940Z,13.40
2019-02-08T20:13:17.742Z,12.93
2019-02-08T20:15:48.361Z,20.63
2019-02-08T20:18:19.890Z,21.10
2019-02-08T20:20:51.050Z,20.07
2019-02-08T20:23:21.833Z,30.33
2019-02-08T20:25:53.084Z,30.00
2019-02-08T20:28:23.837Z,24.07
2019-02-08T20:30:55.370Z,23.77
2019-02-08T20:33:26.251Z,29.13
2019-02-08T20:35:57.287Z,26.57
2019-02-08T20:38:29.570Z,19.00
2019-02-08T20:40:59.997Z,16.33
2019-02-08T20:43:30.924Z,16.07
2019-02-08T20:46:02.629Z,17.63
2019-02-08T20:48:34.011Z,21.63
2019-02-08T20:51:04.725Z,22.57
2019-02-08T20:53:35.693Z,22.50
2019-02-08T20:56:06.388Z,23.50
2019-02-08T20:58:37.724Z,25.37
2019-02-08T21:01:08.974Z,23.10
2019-02-08T21:03:41.071Z,18.37
2019-02-08T21:06:12.190Z,18.23
2019-02-08T21:08:43.559Z,18.50
2019-02-08T21:11:14.817Z,19.20
2019-02-08T21:13:44.837Z,19.50
2019-02-08T21:16:15.291Z,20.93
2019-02-08T21:18:46.161Z,19.23
2019-02-08T21:21:16.865Z,19.50
2019-02-08T21:23:48.409Z,18.67
2019-02-08T21:26:18.827Z,17.43
2019-02-08T21:28:49.133Z,16.43
2019-02-08T21:31:19.616Z,18.30
2019-02-08T21:33:49.731Z,18.23
2019-02-08T21:36:19.412Z,19.30
2019-02-08T21:38:49.795Z,17.87
2019-02-08T21:41:20.541Z,17.83
2019-02-08T21:43:51.018Z,16.77
2019-02-08T21:46:20.738Z,17.30
2019-02-08T21:48:50.717Z,17.20
2019-02-08T21:51:21.133Z,17.70
2019-02-08T21:53:51.208Z,18.43
2019-02-08T21:56:20.881Z,18.97
2019-02-08T21:58:50.515Z,21.57
2019-02-08T22:01:20.493Z,23.50
2019-02-08T22:03:50.653Z,22.93
2019-02-08T22:06:20.402Z,21.43
2019-02-08T22:08:50.959Z,20.40
2019-02-08T22:11:20.668Z,24.40
2019-02-08T22:13:50.743Z,25.13
2019-02-08T22:16:20.737Z,25.20
2019-02-08T22:18:50.591Z,21.83
2019-02-08T22:21:20.701Z,17.90
2019-02-08T22:23:50.940Z,18.37
2019-02-08T22:26:21.188Z,18.00
2019-02-08T22:28:51.025Z,18.53
2019-02-08T22:31:20.412Z,17.00
2019-02-08T22:33:50.299Z,17.63
2019-02-08T22:36:21.750Z,16.70
2019-02-08T22:38:51.624Z,16.65
2019-02-08T22:41:23.048Z,15.57
2019-02-08T22:43:54.703Z,15.80
2019-02-08T22:46:24.232Z,14.83
2019-02-08T22:48:54.879Z,15.33
2019-02-08T22:51:24.604Z,15.53
2019-02-08T22:53:55.513Z,14.53
2019-02-08T22:56:26.256Z,15.90
2019-02-08T22:58:56.730Z,15.10
2019-02-08T23:01:32.379Z,14.40
2019-02-08T23:04:07.115Z,14.60
2019-02-08T23:06:44.187Z,14.33
2019-02-08T23:09:21.300Z,14.97
2019-02-08T23:11:51.236Z,14.50
2019-02-08T23:14:21.597Z,13.90
2019-02-08T23:16:51.418Z,14.07
2019-02-08T23:19:21.446Z,14.73
2019-02-08T23:21:51.413Z,14.27
2019-02-08T23:24:21.546Z,14.47
2019-02-08T23:26:51.328Z,14.27
2019-02-08T23:29:21.559Z,14.80
2019-02-08T23:31:51.487Z,14.80
2019-02-08T23:34:21.695Z,14.47
2019-02-08T23:36:52.551Z,14.53
2019-02-08T23:39:22.188Z,15.17
2019-02-08T23:41:52.713Z,14.67
2019-02-08T23:44:23.017Z,14.70
2019-02-08T23:46:54.407Z,15.20
2019-02-08T23:49:24.613Z,14.30
2019-02-08T23:51:55.563Z,14.53
2019-02-08T23:54:25.287Z,14.03
2019-02-08T23:56:55.462Z,13.57
2019-02-08T23:59:26.134Z,14.00
